createdAt,value
2018-06-18T00:01:58.036Z,101241.20
2018-06-18T00:04:25.041Z,101237.06
2018-06-18T00:06:52.054Z,101237.06
2018-06-18T00:09:19.060Z,101243.16
2018-06-18T00:11:46.877Z,101239.42
2018-06-18T00:14:13.899Z,101236.84
2018-06-18T00:16:40.925Z,101239.21
2018-06-18T00:19:08.019Z,101229.48
2018-06-18T00:21:35.041Z,101231.62
2018-06-18T00:24:02.269Z,101228.70
2018-06-18T00:26:29.273Z,101224.70
2018-06-18T00:28:56.339Z,101227.00
2018-06-18T00:31:23.351Z,101229.09
2018-06-18T00:33:50.518Z,101224.86
2018-06-18T00:36:17.798Z,101218.19
2018-06-18T00:38:44.811Z,101220.98
2018-06-18T00:41:11.832Z,101225.59
2018-06-18T00:43:38.849Z,101225.66
2018-06-18T00:46:05.858Z,101226.28
2018-06-18T00:48:32.872Z,101232.66
2018-06-18T00:50:59.966Z,101229.09
2018-06-18T00:53:26.981Z,101227.84
2018-06-18T00:56:06.373Z,101228.98
2018-06-18T00:58:33.382Z,101227.95
2018-06-18T01:01:00.462Z,101222.55
2018-06-18T01:03:27.492Z,101225.08
2018-06-18T01:05:54.556Z,101225.97
2018-06-18T01:08:21.589Z,101228.94
2018-06-18T01:10:48.603Z,101228.36
2018-06-18T01:13:15.594Z,101232.16
2018-06-18T01:15:42.613Z,101233.27
2018-06-18T01:18:09.701Z,101232.72
2018-06-18T01:20:36.706Z,101230.95
2018-06-18T01:23:25.390Z,101219.20
2018-06-18T01:25:52.392Z,101208.71
2018-06-18T01:28:19.401Z,101212.90
2018-06-18T01:30:46.445Z,101203.02
2018-06-18T01:33:13.442Z,101204.45
2018-06-18T01:35:40.482Z,101194.72
2018-06-18T01:38:07.481Z,101189.72
2018-06-18T01:40:34.481Z,101195.86
2018-06-18T01:43:01.772Z,101186.21
2018-06-18T01:45:28.783Z,101189.83
2018-06-18T01:47:55.798Z,101183.78
2018-06-18T01:50:22.837Z,101177.67
2018-06-18T01:52:49.869Z,101177.22
2018-06-18T01:55:16.880Z,101181.45
2018-06-18T01:57:51.724Z,101191.70
2018-06-18T02:00:18.921Z,101182.99
2018-06-18T02:02:46.061Z,101185.73
2018-06-18T02:05:13.089Z,101190.32
2018-06-18T02:07:40.114Z,101197.89
2018-06-18T02:10:07.225Z,101212.34
2018-06-18T02:12:34.241Z,101218.84
2018-06-18T02:15:01.254Z,101212.48
2018-06-18T02:17:28.285Z,101207.33
2018-06-18T02:19:55.289Z,101206.53
2018-06-18T02:22:22.306Z,101205.59
2018-06-18T02:24:49.424Z,101208.19
2018-06-18T02:27:17.529Z,101205.33
2018-06-18T02:29:51.229Z,101204.98
2018-06-18T02:32:23.926Z,101207.34
2018-06-18T02:34:56.954Z,101217.16
2018-06-18T02:37:29.542Z,101218.71
2018-06-18T02:40:02.237Z,101214.41
2018-06-18T02:42:29.260Z,101208.09
2018-06-18T02:44:56.336Z,101203.91
2018-06-18T02:47:23.344Z,101212.17
2018-06-18T02:49:50.339Z,101211.41
2018-06-18T02:52:17.369Z,101209.75
2018-06-18T02:54:44.467Z,101209.58
2018-06-18T02:57:12.481Z,101204.99
2018-06-18T02:59:39.477Z,101205.86
2018-06-18T03:02:06.586Z,101205.94
2018-06-18T03:04:33.658Z,101213.81
2018-06-18T03:07:00.657Z,101205.77
2018-06-18T03:09:27.674Z,101199.63
2018-06-18T03:11:54.713Z,101200.56
2018-06-18T03:14:21.745Z,101205.33
2018-06-18T03:16:48.773Z,101207.28
2018-06-18T03:19:21.413Z,101205.72
2018-06-18T03:21:54.202Z,101203.20
2018-06-18T03:24:26.886Z,101199.08
2018-06-18T03:26:59.502Z,101204.82
2018-06-18T03:29:29.646Z,101209.28
2018-06-18T03:31:58.273Z,101199.64
2018-06-18T03:34:25.278Z,101202.64
2018-06-18T03:36:52.888Z,101209.75
2018-06-18T03:39:19.919Z,101206.70
2018-06-18T03:41:48.650Z,101205.97
2018-06-18T03:44:23.585Z,101216.46
2018-06-18T03:46:50.926Z,101221.23
2018-06-18T03:49:17.929Z,101229.97
2018-06-18T03:51:46.894Z,101225.59
2018-06-18T03:54:16.736Z,101228.22
2018-06-18T03:56:43.739Z,101225.94
2018-06-18T03:59:10.969Z,101220.72
2018-06-18T04:01:50.985Z,101233.67
2018-06-18T04:04:25.891Z,101226.56
2018-06-18T04:06:58.745Z,101213.89
2018-06-18T04:09:31.905Z,101222.15
2018-06-18T04:12:05.104Z,101213.30
2018-06-18T04:14:32.229Z,101219.05
2018-06-18T04:17:00.673Z,101214.40
2018-06-18T04:19:27.917Z,101221.06
2018-06-18T04:21:54.877Z,101211.81
2018-06-18T04:24:22.193Z,101213.42
2018-06-18T04:26:49.282Z,101222.20
2018-06-18T04:29:16.329Z,101220.13
2018-06-18T04:31:43.637Z,101221.80
2018-06-18T04:34:48.861Z,101214.75
2018-06-18T04:37:15.883Z,101220.54
2018-06-18T04:39:42.913Z,101223.36
2018-06-18T04:42:15.881Z,101230.42
2018-06-18T04:44:48.610Z,101219.38
2018-06-18T04:47:21.213Z,101222.38
2018-06-18T04:49:54.071Z,101227.09
2018-06-18T04:52:21.167Z,101232.81
2018-06-18T04:54:48.289Z,101244.78
2018-06-18T04:57:15.317Z,101236.67
2018-06-18T04:59:45.576Z,101243.56
2018-06-18T05:02:12.583Z,101248.45
2018-06-18T05:04:39.677Z,101244.50
2018-06-18T05:07:06.867Z,101249.81
2018-06-18T05:10:06.826Z,101244.99
2018-06-18T05:12:33.866Z,101234.42
2018-06-18T05:15:01.243Z,101227.60
2018-06-18T05:17:28.501Z,101217.52
2018-06-18T05:19:55.521Z,101202.98
2018-06-18T05:22:22.590Z,101192.30
2018-06-18T05:24:51.486Z,101196.33
2018-06-18T05:27:20.365Z,101199.59
2018-06-18T05:29:47.432Z,101203.14
2018-06-18T05:32:14.442Z,101205.12
2018-06-18T05:34:41.437Z,101206.95
2018-06-18T05:37:11.335Z,101199.81
2018-06-18T05:39:38.349Z,101210.41
2018-06-18T05:42:05.429Z,101210.41
2018-06-18T05:44:32.459Z,101210.64
2018-06-18T05:46:59.474Z,101215.31
2018-06-18T05:49:26.536Z,101233.17
2018-06-18T05:51:53.565Z,101235.41
2018-06-18T05:54:20.595Z,101234.59
2018-06-18T05:56:47.627Z,101246.94
2018-06-18T05:59:14.709Z,101246.44
2018-06-18T06:01:41.726Z,101238.32
2018-06-18T06:04:08.759Z,101231.28
2018-06-18T06:06:35.784Z,101228.12
2018-06-18T06:09:04.783Z,101233.94
2018-06-18T06:11:31.801Z,101246.11
2018-06-18T06:13:58.925Z,101244.80
2018-06-18T06:16:25.961Z,101239.09
2018-06-18T06:18:53.197Z,101238.88
2018-06-18T06:21:20.295Z,101240.76
2018-06-18T06:23:47.310Z,101240.86
2018-06-18T06:26:14.735Z,101246.39
2018-06-18T06:28:41.815Z,101241.30
2018-06-18T06:31:09.212Z,101247.00
2018-06-18T06:33:36.313Z,101240.95
2018-06-18T06:36:04.626Z,101251.64
2018-06-18T06:38:31.680Z,101251.91
2018-06-18T06:40:58.807Z,101247.53
2018-06-18T06:43:25.997Z,101252.32
2018-06-18T06:45:53.035Z,101258.31
2018-06-18T06:48:20.092Z,101255.92
2018-06-18T06:50:47.096Z,101255.28
2018-06-18T06:53:14.173Z,101258.43
2018-06-18T06:55:41.175Z,101250.27
2018-06-18T06:58:08.199Z,101254.50
2018-06-18T07:00:35.373Z,101251.16
2018-06-18T07:03:02.389Z,101254.91
2018-06-18T07:05:29.397Z,101256.41
2018-06-18T07:07:56.457Z,101258.20
2018-06-18T07:10:23.471Z,101245.05
2018-06-18T07:12:50.709Z,101244.02
2018-06-18T07:15:17.813Z,101240.33
2018-06-18T07:17:44.918Z,101231.45
2018-06-18T07:20:11.996Z,101232.30
2018-06-18T07:22:39.026Z,101227.37
2018-06-18T07:25:06.080Z,101238.62
2018-06-18T07:27:33.221Z,101244.22
2018-06-18T07:30:00.337Z,101242.48
2018-06-18T07:32:27.363Z,101242.34
2018-06-18T07:34:54.598Z,101241.73
2018-06-18T07:37:21.675Z,101235.97
2018-06-18T07:39:48.684Z,101235.78
2018-06-18T07:42:15.756Z,101235.91
2018-06-18T07:44:42.782Z,101234.96
2018-06-18T07:47:09.875Z,101235.83
2018-06-18T07:49:37.156Z,101235.78
2018-06-18T07:52:04.305Z,101231.53
2018-06-18T07:54:31.324Z,101232.36
2018-06-18T07:56:58.492Z,101235.41
2018-06-18T07:59:25.640Z,101233.55
2018-06-18T08:01:52.642Z,101231.28
2018-06-18T08:04:19.672Z,101232.55
2018-06-18T08:06:46.726Z,101232.48
2018-06-18T08:09:14.762Z,101229.00
2018-06-18T08:11:42.473Z,101220.34
2018-06-18T08:14:09.509Z,101218.26
2018-06-18T08:16:36.518Z,101225.72
2018-06-18T08:19:03.903Z,101231.41
2018-06-18T08:21:31.074Z,101215.44
2018-06-18T08:23:58.116Z,101225.58
2018-06-18T08:26:25.229Z,101225.12
2018-06-18T08:28:52.253Z,101227.18
2018-06-18T08:31:19.284Z,101219.56
2018-06-18T08:33:46.292Z,101227.89
2018-06-18T08:36:13.326Z,101228.12
2018-06-18T08:38:40.442Z,101229.57
2018-06-18T08:41:07.477Z,101224.16
2018-06-18T08:43:34.498Z,101219.55
2018-06-18T08:46:01.556Z,101219.55
2018-06-18T08:48:34.257Z,101224.44
2018-06-18T08:51:07.062Z,101213.23
2018-06-18T08:53:39.776Z,101211.12
2018-06-18T08:56:12.630Z,101216.11
2018-06-18T08:59:45.110Z,101220.07
2018-06-18T09:02:12.183Z,101215.70
2018-06-18T09:04:48.910Z,101216.84
2018-06-18T09:07:15.980Z,101223.80
2018-06-18T09:09:43.966Z,101220.63
2018-06-18T09:12:11.022Z,101227.64
2018-06-18T09:14:38.342Z,101237.59
2018-06-18T09:17:05.374Z,101229.25
2018-06-18T09:19:32.409Z,101231.25
2018-06-18T09:21:59.467Z,101232.92
2018-06-18T09:24:33.021Z,101237.92
2018-06-18T09:27:05.896Z,101230.46
2018-06-18T09:29:33.235Z,101231.17
2018-06-18T09:32:00.387Z,101228.69
2018-06-18T09:34:27.641Z,101229.02
2018-06-18T09:36:55.257Z,101230.03
2018-06-18T09:39:22.539Z,101232.84
2018-06-18T09:41:49.750Z,101239.14
2018-06-18T09:44:16.792Z,101244.64
2018-06-18T09:46:45.235Z,101236.14
2018-06-18T09:49:17.957Z,101227.34
2018-06-18T09:51:51.517Z,101231.93
2018-06-18T09:54:24.374Z,101233.41
2018-06-18T09:56:57.042Z,101235.73
2018-06-18T09:59:39.699Z,101236.36
2018-06-18T10:02:07.874Z,101240.84
2018-06-18T10:04:34.896Z,101244.63
2018-06-18T10:07:01.927Z,101250.00
2018-06-18T10:09:28.954Z,101255.06
2018-06-18T10:11:55.983Z,101254.16
2018-06-18T10:14:24.079Z,101257.13
2018-06-18T10:16:51.053Z,101258.38
2018-06-18T10:19:18.074Z,101252.76
2018-06-18T10:21:45.125Z,101255.56
2018-06-18T10:24:12.206Z,101251.58
2018-06-18T10:26:39.221Z,101253.63
2018-06-18T10:29:06.482Z,101255.80
2018-06-18T10:31:33.517Z,101248.46
2018-06-18T10:34:06.525Z,101245.75
2018-06-18T10:36:39.239Z,101246.87
2018-06-18T10:39:12.929Z,101237.37
2018-06-18T10:41:45.629Z,101229.70
2018-06-18T10:44:12.656Z,101235.61
2018-06-18T10:46:39.681Z,101235.36
2018-06-18T10:49:06.766Z,101244.25
2018-06-18T10:51:33.792Z,101245.95
2018-06-18T10:54:00.805Z,101258.13
2018-06-18T10:56:27.873Z,101250.20
2018-06-18T10:58:54.918Z,101254.22
2018-06-18T11:01:27.522Z,101266.67
2018-06-18T11:03:54.655Z,101251.02
2018-06-18T11:06:27.294Z,101257.57
2018-06-18T11:08:54.310Z,101261.20
2018-06-18T11:11:21.356Z,101257.64
2018-06-18T11:13:48.406Z,101263.16
2018-06-18T11:16:15.587Z,101262.92
2018-06-18T11:18:48.090Z,101265.85
2018-06-18T11:21:21.056Z,101267.00
2018-06-18T11:23:53.725Z,101254.44
2018-06-18T11:26:26.615Z,101245.94
2018-06-18T11:28:53.592Z,101250.30
2018-06-18T11:31:20.640Z,101251.86
2018-06-18T11:33:47.629Z,101253.41
2018-06-18T11:36:14.682Z,101252.48
2018-06-18T11:38:41.706Z,101261.02
2018-06-18T11:41:08.716Z,101248.19
2018-06-18T11:43:35.790Z,101241.43
2018-06-18T11:46:02.814Z,101244.31
2018-06-18T11:48:30.078Z,101250.47
2018-06-18T11:50:57.109Z,101247.95
2018-06-18T11:53:24.130Z,101252.14
2018-06-18T11:55:51.210Z,101245.22
2018-06-18T11:58:23.958Z,101235.95
2018-06-18T12:00:56.879Z,101232.47
2018-06-18T12:03:29.673Z,101229.34
2018-06-18T12:06:02.402Z,101225.01
2018-06-18T12:08:35.136Z,101230.91
2018-06-18T12:11:02.282Z,101240.02
2018-06-18T12:13:29.396Z,101231.60
2018-06-18T12:15:56.497Z,101232.30
2018-06-18T12:18:23.520Z,101234.44
2018-06-18T12:20:50.565Z,101237.22
2018-06-18T12:23:17.610Z,101241.41
2018-06-18T12:25:44.746Z,101248.62
2018-06-18T12:28:11.985Z,101249.73
2018-06-18T12:30:39.150Z,101246.28
2018-06-18T12:33:06.212Z,101239.38
2018-06-18T12:35:33.224Z,101243.03
2018-06-18T12:38:00.355Z,101233.77
2018-06-18T12:40:27.472Z,101239.59
2018-06-18T12:42:54.569Z,101235.09
2018-06-18T12:45:27.687Z,101232.55
2018-06-18T12:48:00.708Z,101239.16
2018-06-18T12:50:33.526Z,101239.28
2018-06-18T12:53:06.589Z,101238.92
2018-06-18T12:55:39.334Z,101238.67
2018-06-18T12:58:06.466Z,101232.22
2018-06-18T13:00:33.498Z,101235.78
2018-06-18T13:03:10.108Z,101236.13
2018-06-18T13:05:37.133Z,101238.05
2018-06-18T13:08:04.298Z,101242.28
2018-06-18T13:10:31.454Z,101237.84
2018-06-18T13:12:58.463Z,101239.72
2018-06-18T13:15:25.500Z,101236.37
2018-06-18T13:17:52.521Z,101234.42
2018-06-18T13:20:19.900Z,101232.02
2018-06-18T13:22:46.895Z,101232.84
2018-06-18T13:25:14.097Z,101231.83
2018-06-18T13:27:46.702Z,101233.02
2018-06-18T13:30:14.108Z,101237.58
2018-06-18T13:32:41.141Z,101236.48
2018-06-18T13:35:08.517Z,101242.44
2018-06-18T13:37:41.679Z,101242.61
2018-06-18T13:40:14.456Z,101248.73
2018-06-18T13:42:47.149Z,101240.84
2018-06-18T13:45:19.931Z,101242.97
2018-06-18T13:47:52.729Z,101240.37
2018-06-18T13:50:19.761Z,101249.66
2018-06-18T13:52:46.986Z,101237.19
2018-06-18T13:55:14.374Z,101232.20
2018-06-18T13:57:41.377Z,101236.14
2018-06-18T14:00:08.784Z,101231.91
2018-06-18T14:05:09.763Z,101234.38
2018-06-18T14:07:36.778Z,101224.50
2018-06-18T14:10:03.807Z,101221.35
2018-06-18T14:12:31.045Z,101212.78
2018-06-18T14:14:58.180Z,101218.73
2018-06-18T14:17:25.193Z,101221.13
2018-06-18T14:19:58.077Z,101224.12
2018-06-18T14:22:25.101Z,101220.73
2018-06-18T14:24:52.369Z,101216.19
2018-06-18T14:27:19.414Z,101211.47
2018-06-18T14:29:52.166Z,101219.22
2018-06-18T14:32:24.794Z,101211.56
2018-06-18T14:34:57.522Z,101207.06
2018-06-18T14:37:30.285Z,101199.64
2018-06-18T14:40:28.591Z,101196.44
2018-06-18T14:42:55.665Z,101197.30
2018-06-18T14:45:22.703Z,101189.80
2018-06-18T14:47:49.716Z,101182.13
2018-06-18T14:50:16.757Z,101185.22
2018-06-18T14:52:43.879Z,101184.12
2018-06-18T14:55:11.966Z,101187.11
2018-06-18T14:57:39.007Z,101180.40
2018-06-18T15:00:09.897Z,101184.77
2018-06-18T15:02:36.953Z,101175.23
2018-06-18T15:05:04.152Z,101170.20
2018-06-18T15:07:31.306Z,101169.08
2018-06-18T15:09:58.328Z,101176.61
2018-06-18T15:12:26.721Z,101170.04
2018-06-18T15:14:59.567Z,101170.97
2018-06-18T15:17:26.739Z,101172.93
2018-06-18T15:19:53.896Z,101169.77
2018-06-18T15:22:22.605Z,101164.97
2018-06-18T15:24:52.104Z,101160.97
2018-06-18T15:27:19.674Z,101159.21
2018-06-18T15:29:46.762Z,101158.90
2018-06-18T15:32:13.799Z,101163.59
2018-06-18T15:34:40.845Z,101162.67
2018-06-18T15:37:07.865Z,101156.89
2018-06-18T15:39:34.884Z,101155.29
2018-06-18T15:42:01.917Z,101156.06
2018-06-18T15:44:28.942Z,101142.34
2018-06-18T15:46:55.964Z,101145.20
2018-06-18T15:49:22.993Z,101143.39
2018-06-18T15:51:49.998Z,101147.78
2018-06-18T15:54:17.023Z,101139.24
2018-06-18T15:56:44.128Z,101143.96
2018-06-18T15:59:11.129Z,101136.72
2018-06-18T16:01:38.185Z,101146.70
2018-06-18T16:04:05.475Z,101138.28
2018-06-18T16:06:32.532Z,101138.22
2018-06-18T16:08:59.544Z,101145.33
2018-06-18T16:11:26.659Z,101143.07
2018-06-18T16:13:53.670Z,101129.37
2018-06-18T16:16:20.765Z,101131.82
2018-06-18T16:18:47.799Z,101128.41
2018-06-18T16:21:14.802Z,101129.05
2018-06-18T16:23:41.832Z,101129.30
2018-06-18T16:26:08.947Z,101129.28
2018-06-18T16:28:35.970Z,101126.38
2018-06-18T16:31:03.032Z,101128.16
2018-06-18T16:33:30.053Z,101129.81
2018-06-18T16:35:57.053Z,101121.60
2018-06-18T16:38:24.166Z,101117.86
2018-06-18T16:40:51.280Z,101119.05
2018-06-18T16:43:18.409Z,101120.03
2018-06-18T16:45:45.433Z,101114.58
2018-06-18T16:48:12.481Z,101119.41
2018-06-18T16:50:39.483Z,101116.28
2018-06-18T16:55:40.434Z,101111.40
2018-06-18T16:58:07.542Z,101115.42
2018-06-18T17:00:34.623Z,101113.80
2018-06-18T17:03:01.604Z,101108.02
2018-06-18T17:05:28.642Z,101112.77
2018-06-18T17:07:55.669Z,101121.72
2018-06-18T17:10:22.673Z,101111.87
2018-06-18T17:12:49.958Z,101118.31
2018-06-18T17:15:17.051Z,101113.75
2018-06-18T17:17:44.077Z,101115.02
2018-06-18T17:20:11.253Z,101120.03
2018-06-18T17:22:38.276Z,101117.23
2018-06-18T17:25:05.313Z,101119.19
2018-06-18T17:27:32.348Z,101123.48
2018-06-18T17:29:59.363Z,101119.70
2018-06-18T17:32:26.382Z,101120.25
2018-06-18T17:34:53.398Z,101122.61
2018-06-18T17:37:20.420Z,101123.02
2018-06-18T17:39:47.446Z,101120.47
2018-06-18T17:42:14.472Z,101119.11
2018-06-18T17:44:41.482Z,101115.16
2018-06-18T17:49:42.554Z,101118.89
2018-06-18T17:52:09.675Z,101117.27
2018-06-18T17:54:36.786Z,101120.60
2018-06-18T17:57:04.189Z,101109.52
2018-06-18T17:59:31.188Z,101115.92
2018-06-18T18:01:58.196Z,101118.44
2018-06-18T18:04:25.204Z,101120.06
2018-06-18T18:06:52.227Z,101117.58
2018-06-18T18:09:19.248Z,101107.73
2018-06-18T18:11:46.681Z,101110.38
2018-06-18T18:14:13.699Z,101110.82
2018-06-18T18:16:40.747Z,101117.90
2018-06-18T18:19:07.796Z,101117.08
2018-06-18T18:21:34.817Z,101125.42
2018-06-18T18:24:01.864Z,101144.29
2018-06-18T18:26:28.977Z,101142.98
2018-06-18T18:28:55.983Z,101148.36
2018-06-18T18:31:23.262Z,101156.16
2018-06-18T18:33:50.619Z,101158.11
2018-06-18T18:36:18.178Z,101157.97
2018-06-18T18:38:45.341Z,101159.20
2018-06-18T18:41:12.375Z,101154.33
2018-06-18T18:43:39.403Z,101162.41
2018-06-18T18:46:06.472Z,101162.56
2018-06-18T18:48:33.702Z,101158.13
2018-06-18T18:51:01.110Z,101158.00
2018-06-18T18:53:28.292Z,101158.28
2018-06-18T18:56:07.352Z,101161.73
2018-06-18T18:59:44.654Z,101154.36
2018-06-18T19:02:11.750Z,101150.79
2018-06-18T19:04:56.161Z,101152.95
2018-06-18T19:07:31.096Z,101153.69
2018-06-18T19:10:05.370Z,101151.51
2018-06-18T19:12:32.405Z,101148.19
2018-06-18T19:14:59.428Z,101145.30
2018-06-18T19:17:26.500Z,101142.23
2018-06-18T19:19:59.213Z,101151.06
2018-06-18T19:22:26.538Z,101151.19
2018-06-18T19:24:53.632Z,101150.85
2018-06-18T19:27:20.680Z,101150.57
2018-06-18T19:29:47.714Z,101157.69
2018-06-18T19:32:15.253Z,101159.86
2018-06-18T19:34:42.317Z,101170.38
2018-06-18T19:37:09.473Z,101174.73
2018-06-18T19:39:39.909Z,101175.05
2018-06-18T19:42:07.442Z,101180.41
2018-06-18T19:44:34.822Z,101184.48
2018-06-18T19:47:19.995Z,101178.87
2018-06-18T19:49:47.078Z,101191.96
2018-06-18T19:52:14.109Z,101185.48
2018-06-18T19:54:46.451Z,101183.81
2018-06-18T19:57:13.506Z,101175.69
2018-06-18T19:59:40.591Z,101174.42
2018-06-18T20:02:08.211Z,101173.53
2018-06-18T20:04:35.256Z,101182.81
2018-06-18T20:07:02.367Z,101180.68
2018-06-18T20:09:29.431Z,101185.84
2018-06-18T20:11:56.542Z,101183.35
2018-06-18T20:14:23.593Z,101180.36
2018-06-18T20:16:50.680Z,101181.49
2018-06-18T20:19:19.507Z,101179.69
2018-06-18T20:21:47.601Z,101185.16
2018-06-18T20:24:14.675Z,101177.14
2018-06-18T20:26:41.759Z,101179.09
2018-06-18T20:29:09.169Z,101185.75
2018-06-18T20:31:36.358Z,101188.64
2018-06-18T20:34:03.493Z,101182.16
2018-06-18T20:36:30.895Z,101190.31
2018-06-18T20:38:57.975Z,101192.17
2018-06-18T20:41:25.050Z,101196.56
2018-06-18T20:43:57.105Z,101200.05
2018-06-18T20:46:24.205Z,101202.23
2018-06-18T20:48:51.253Z,101200.73
2018-06-18T20:51:18.350Z,101202.64
2018-06-18T20:53:45.381Z,101209.13
2018-06-18T20:56:12.421Z,101206.44
2018-06-18T20:58:39.493Z,101216.13
2018-06-18T21:01:06.751Z,101211.92
2018-06-18T21:03:33.872Z,101212.78
2018-06-18T21:06:00.989Z,101211.06
2018-06-18T21:08:28.089Z,101212.19
2018-06-18T21:10:55.969Z,101223.81
2018-06-18T21:13:23.037Z,101224.94
2018-06-18T21:15:50.369Z,101227.48
2018-06-18T21:18:17.721Z,101226.66
2018-06-18T21:20:45.084Z,101232.09
2018-06-18T21:23:12.126Z,101219.52
2018-06-18T21:25:39.222Z,101219.25
2018-06-18T21:28:07.263Z,101222.41
2018-06-18T21:30:34.278Z,101214.20
2018-06-18T21:33:02.010Z,101219.73
2018-06-18T21:35:29.090Z,101224.66
2018-06-18T21:37:56.145Z,101225.92
2018-06-18T21:40:23.198Z,101226.38
2018-06-18T21:42:50.298Z,101232.00
2018-06-18T21:45:19.719Z,101235.92
2018-06-18T21:47:47.557Z,101235.00
2018-06-18T21:50:14.900Z,101229.53
2018-06-18T21:52:42.046Z,101225.06
2018-06-18T21:55:09.099Z,101225.11
2018-06-18T21:57:36.388Z,101224.97
2018-06-18T22:00:08.391Z,101221.72
2018-06-18T22:02:35.422Z,101220.45
2018-06-18T22:05:02.449Z,101235.61
2018-06-18T22:07:29.974Z,101233.84
2018-06-18T22:09:56.998Z,101237.45
2018-06-18T22:12:24.093Z,101235.00
2018-06-18T22:14:51.523Z,101232.52
2018-06-18T22:17:18.564Z,101231.00
2018-06-18T22:19:45.827Z,101223.59
2018-06-18T22:22:12.885Z,101213.56
2018-06-18T22:24:39.974Z,101223.97
2018-06-18T22:27:07.242Z,101226.77
2018-06-18T22:29:34.978Z,101224.38
2018-06-18T22:32:02.048Z,101227.25
2018-06-18T22:34:29.058Z,101224.77
2018-06-18T22:36:56.316Z,101214.89
2018-06-18T22:39:23.958Z,101217.75
2018-06-18T22:41:51.425Z,101217.75
2018-06-18T22:44:18.448Z,101227.83
2018-06-18T22:46:45.586Z,101221.49
2018-06-18T22:49:12.897Z,101224.75
2018-06-18T22:51:40.000Z,101230.91
2018-06-18T22:54:07.075Z,101221.58
2018-06-18T22:56:34.391Z,101221.27
2018-06-18T22:59:01.517Z,101223.56
2018-06-18T23:01:28.820Z,101220.37
2018-06-18T23:03:55.864Z,101217.74
2018-06-18T23:06:23.056Z,101219.27
2018-06-18T23:08:50.186Z,101214.80
2018-06-18T23:11:17.244Z,101212.18
2018-06-18T23:13:44.403Z,101210.30
2018-06-18T23:16:11.434Z,101204.28
2018-06-18T23:18:38.469Z,101203.02
2018-06-18T23:21:05.503Z,101210.37
2018-06-18T23:23:32.510Z,101214.42
2018-06-18T23:26:06.441Z,101216.69
2018-06-18T23:28:40.594Z,101216.14
2018-06-18T23:31:07.646Z,101216.23
2018-06-18T23:33:34.801Z,101216.65
2018-06-18T23:36:01.889Z,101214.61
2018-06-18T23:38:28.990Z,101220.78
2018-06-18T23:40:56.010Z,101211.22
2018-06-18T23:43:23.108Z,101219.52
2018-06-18T23:45:50.165Z,101212.89
2018-06-18T23:48:17.570Z,101209.58
2018-06-18T23:50:44.621Z,101211.09
2018-06-18T23:53:11.665Z,101218.69
2018-06-18T23:55:38.688Z,101215.55
2018-06-18T23:58:05.788Z,101220.05
